createdAt,value
2023-02-28T00:01:34.852Z,51.29
2023-02-28T00:04:02.282Z,51.52
2023-02-28T00:06:29.346Z,51.39
2023-02-28T00:08:56.467Z,51.50
2023-02-28T00:11:23.754Z,51.27
2023-02-28T00:13:50.912Z,50.90
2023-02-28T00:16:22.250Z,50.74
2023-02-28T00:18:50.197Z,50.76
2023-02-28T00:21:19.321Z,50.44
2023-02-28T00:23:46.450Z,50.06
2023-02-28T00:26:13.935Z,50.02
2023-02-28T00:28:44.962Z,49.54
2023-02-28T00:31:12.057Z,49.45
2023-02-28T00:33:39.032Z,49.64
2023-02-28T00:36:10.444Z,49.62
2023-02-28T00:38:39.546Z,49.68
2023-02-28T00:41:08.106Z,49.56
2023-02-28T00:43:37.983Z,50.04
2023-02-28T00:46:05.556Z,49.19
2023-02-28T00:48:33.072Z,49.30
2023-02-28T00:51:00.822Z,49.60
2023-02-28T00:53:28.188Z,49.42
2023-02-28T00:55:58.349Z,49.81
2023-02-28T00:58:26.588Z,50.18
2023-02-28T01:00:54.727Z,49.81
2023-02-28T01:03:23.534Z,49.67
2023-02-28T01:05:50.903Z,49.68
2023-02-28T01:08:18.231Z,49.59
2023-02-28T01:10:45.347Z,49.91
2023-02-28T01:13:13.993Z,50.15
2023-02-28T01:15:52.067Z,50.00
2023-02-28T01:18:20.692Z,49.98
2023-02-28T01:20:48.182Z,49.42
2023-02-28T01:23:16.803Z,50.12
2023-02-28T01:25:43.778Z,50.27
2023-02-28T01:28:10.914Z,50.04
2023-02-28T01:30:37.935Z,50.26
2023-02-28T01:33:04.943Z,50.40
2023-02-28T01:35:36.733Z,50.59
2023-02-28T01:38:20.579Z,50.59
2023-02-28T01:40:48.140Z,50.72
2023-02-28T01:43:44.039Z,50.91
2023-02-28T01:46:14.653Z,51.09
2023-02-28T01:48:54.585Z,51.30
2023-02-28T01:51:35.945Z,51.25
2023-02-28T01:54:14.459Z,51.49
2023-02-28T01:56:48.908Z,51.68
2023-02-28T01:59:28.568Z,52.21
2023-02-28T02:01:56.452Z,52.36
2023-02-28T02:04:27.445Z,52.06
2023-02-28T02:06:55.017Z,52.74
2023-02-28T02:09:21.926Z,52.80
2023-02-28T02:11:48.939Z,52.74
2023-02-28T02:14:44.748Z,53.09
2023-02-28T02:17:49.604Z,52.77
2023-02-28T02:21:01.164Z,53.05
2023-02-28T02:24:43.315Z,52.92
2023-02-28T02:27:47.018Z,53.12
2023-02-28T02:30:32.581Z,53.44
2023-02-28T02:33:17.581Z,53.23
2023-02-28T02:36:26.690Z,53.67
2023-02-28T02:39:05.576Z,53.46
2023-02-28T02:41:47.242Z,53.94
2023-02-28T02:44:39.802Z,53.87
2023-02-28T02:47:13.039Z,54.11
2023-02-28T02:49:46.918Z,54.41
2023-02-28T02:52:18.690Z,54.49
2023-02-28T02:54:49.249Z,54.41
2023-02-28T02:57:35.231Z,54.44
2023-02-28T03:00:06.157Z,55.06
2023-02-28T03:02:34.840Z,54.99
2023-02-28T03:05:09.710Z,55.30
2023-02-28T03:07:37.709Z,55.32
2023-02-28T03:10:38.791Z,55.62
2023-02-28T03:13:47.521Z,55.94
2023-02-28T03:16:34.804Z,55.80
2023-02-28T03:19:39.265Z,56.08
2023-02-28T03:22:34.209Z,55.89
2023-02-28T03:25:12.886Z,55.74
2023-02-28T03:28:06.871Z,55.90
2023-02-28T03:31:17.324Z,55.78
2023-02-28T03:33:56.069Z,55.98
2023-02-28T03:36:31.989Z,56.04
2023-02-28T03:39:08.257Z,55.87
2023-02-28T03:42:19.465Z,55.86
2023-02-28T03:44:59.366Z,56.15
2023-02-28T03:47:34.167Z,56.24
2023-02-28T03:50:14.054Z,56.44
2023-02-28T03:52:49.924Z,56.58
2023-02-28T03:55:18.935Z,56.38
2023-02-28T03:58:21.642Z,55.96
2023-02-28T04:00:56.763Z,56.78
2023-02-28T04:03:24.333Z,57.11
2023-02-28T04:05:55.642Z,57.29
2023-02-28T04:08:23.925Z,57.22
2023-02-28T04:11:05.679Z,56.99
2023-02-28T04:13:32.642Z,57.11
2023-02-28T04:15:59.850Z,57.19
2023-02-28T04:18:26.769Z,57.35
2023-02-28T04:20:53.803Z,57.22
2023-02-28T04:23:20.957Z,57.15
2023-02-28T04:25:48.011Z,57.13
2023-02-28T04:28:14.940Z,57.42
2023-02-28T04:30:41.943Z,57.46
2023-02-28T04:33:08.952Z,57.86
2023-02-28T04:35:35.971Z,57.72
2023-02-28T04:38:03.092Z,57.57
2023-02-28T04:40:30.126Z,57.63
2023-02-28T04:42:57.151Z,57.30
2023-02-28T04:45:24.170Z,57.47
2023-02-28T04:47:51.137Z,57.56
2023-02-28T04:50:18.164Z,57.72
2023-02-28T04:52:45.099Z,58.24
2023-02-28T04:55:12.028Z,57.77
2023-02-28T04:57:39.021Z,57.54
2023-02-28T05:00:12.416Z,57.48
2023-02-28T05:02:40.516Z,57.58
2023-02-28T05:05:07.766Z,57.36
2023-02-28T05:07:34.861Z,57.43
2023-02-28T05:10:01.846Z,57.58
2023-02-28T05:12:28.985Z,57.82
2023-02-28T05:14:56.021Z,57.76
2023-02-28T05:17:22.987Z,58.03
2023-02-28T05:19:49.921Z,57.65
2023-02-28T05:22:17.855Z,57.91
2023-02-28T05:24:45.081Z,58.23
2023-02-28T05:27:12.280Z,57.91
2023-02-28T05:29:43.031Z,58.49
2023-02-28T05:32:13.999Z,58.61
2023-02-28T05:34:41.892Z,58.42
2023-02-28T05:37:16.603Z,58.86
2023-02-28T05:39:44.011Z,58.98
2023-02-28T05:42:10.894Z,59.16
2023-02-28T05:44:38.076Z,59.27
2023-02-28T05:47:05.199Z,59.20
2023-02-28T05:49:32.262Z,59.21
2023-02-28T05:51:59.240Z,59.02
2023-02-28T05:54:26.220Z,58.86
2023-02-28T05:56:53.220Z,59.28
2023-02-28T05:59:20.198Z,59.64
2023-02-28T06:01:51.045Z,59.92
2023-02-28T06:04:30.969Z,59.62
2023-02-28T06:06:59.260Z,60.06
2023-02-28T06:09:26.200Z,59.78
2023-02-28T06:11:53.190Z,59.69
2023-02-28T06:14:21.751Z,59.70
2023-02-28T06:16:48.884Z,59.93
2023-02-28T06:19:16.433Z,59.91
2023-02-28T06:21:44.180Z,59.64
2023-02-28T06:24:11.463Z,59.42
2023-02-28T06:26:38.396Z,59.48
2023-02-28T06:29:05.592Z,59.17
2023-02-28T06:31:33.176Z,59.04
2023-02-28T06:34:00.448Z,59.14
2023-02-28T06:36:27.336Z,59.13
2023-02-28T06:38:55.615Z,58.99
2023-02-28T06:41:27.959Z,58.67
2023-02-28T06:43:55.616Z,58.71
2023-02-28T06:46:23.089Z,58.72
2023-02-28T06:48:50.630Z,58.91
2023-02-28T06:51:25.184Z,58.90
2023-02-28T06:53:52.552Z,58.94
2023-02-28T06:56:21.346Z,58.72
2023-02-28T06:58:50.434Z,58.95
2023-02-28T07:01:18.148Z,59.05
2023-02-28T07:03:45.423Z,58.90
2023-02-28T07:06:12.309Z,58.59
2023-02-28T07:08:41.046Z,58.72
2023-02-28T07:11:07.946Z,58.45
2023-02-28T07:13:35.111Z,58.44
2023-02-28T07:16:09.854Z,58.56
2023-02-28T07:18:37.854Z,58.42
2023-02-28T07:21:08.688Z,58.51
2023-02-28T07:23:36.319Z,58.19
2023-02-28T07:26:03.403Z,58.03
2023-02-28T07:28:30.530Z,58.03
2023-02-28T07:30:57.821Z,57.93
2023-02-28T07:33:25.000Z,57.68
2023-02-28T07:35:52.133Z,57.75
2023-02-28T07:38:19.493Z,57.71
2023-02-28T07:40:46.464Z,57.63
2023-02-28T07:43:14.151Z,57.62
2023-02-28T07:45:41.154Z,57.51
2023-02-28T07:48:10.918Z,57.12
2023-02-28T07:50:38.066Z,56.82
2023-02-28T07:53:05.796Z,56.96
2023-02-28T07:55:32.752Z,57.47
2023-02-28T07:58:00.048Z,57.50
2023-02-28T08:00:27.066Z,57.08
2023-02-28T08:02:54.247Z,57.01
2023-02-28T08:05:22.246Z,56.60
2023-02-28T08:07:50.709Z,56.15
2023-02-28T08:10:17.967Z,56.35
2023-02-28T08:12:45.049Z,56.22
2023-02-28T08:15:12.228Z,56.04
2023-02-28T08:17:39.249Z,55.94
2023-02-28T08:20:07.449Z,55.37
2023-02-28T08:22:34.379Z,55.67
2023-02-28T08:25:01.440Z,55.48
2023-02-28T08:27:28.454Z,55.52
2023-02-28T08:29:55.491Z,54.88
2023-02-28T08:32:30.685Z,54.63
2023-02-28T08:34:58.026Z,54.66
2023-02-28T08:37:25.536Z,54.83
2023-02-28T08:39:56.134Z,54.77
2023-02-28T08:42:24.188Z,54.78
2023-02-28T08:44:51.249Z,54.89
2023-02-28T08:47:18.272Z,54.45
2023-02-28T08:49:45.170Z,54.58
2023-02-28T08:52:12.199Z,54.05
2023-02-28T08:54:39.336Z,54.11
2023-02-28T08:57:06.537Z,54.06
2023-02-28T08:59:33.757Z,53.66
2023-02-28T09:02:00.852Z,54.12
2023-02-28T09:04:27.858Z,54.00
2023-02-28T09:06:54.876Z,53.79
2023-02-28T09:09:21.778Z,53.46
2023-02-28T09:11:49.000Z,52.99
2023-02-28T09:14:18.289Z,52.78
2023-02-28T09:16:45.412Z,52.67
2023-02-28T09:19:13.589Z,52.77
2023-02-28T09:21:41.037Z,52.22
2023-02-28T09:24:08.750Z,51.97
2023-02-28T09:26:42.983Z,51.94
2023-02-28T09:29:18.637Z,51.13
2023-02-28T09:31:46.202Z,50.71
2023-02-28T09:34:13.170Z,50.49
2023-02-28T09:36:45.590Z,49.97
2023-02-28T09:39:16.274Z,49.57
2023-02-28T09:41:51.078Z,49.78
2023-02-28T09:44:38.960Z,49.35
2023-02-28T09:47:31.706Z,48.98
2023-02-28T09:50:17.420Z,49.01
2023-02-28T09:52:49.526Z,49.23
2023-02-28T09:55:16.948Z,48.65
2023-02-28T09:57:44.236Z,48.91
2023-02-28T10:00:26.333Z,48.11
2023-02-28T10:03:38.821Z,48.01
2023-02-28T10:06:21.286Z,48.05
2023-02-28T10:09:20.112Z,48.68
2023-02-28T10:14:27.624Z,48.33
2023-02-28T10:17:22.382Z,48.14
2023-02-28T10:20:15.220Z,47.59
2023-02-28T10:23:15.785Z,47.91
2023-02-28T10:25:51.245Z,47.89
2023-02-28T10:28:21.540Z,47.68
2023-02-28T10:30:54.581Z,47.60
2023-02-28T10:33:36.405Z,47.30
2023-02-28T10:36:04.701Z,46.83
2023-02-28T10:38:40.582Z,46.55
2023-02-28T10:41:17.702Z,46.79
2023-02-28T10:43:48.287Z,47.00
2023-02-28T10:46:27.251Z,46.68
2023-02-28T10:49:07.334Z,46.10
2023-02-28T10:51:42.186Z,45.56
2023-02-28T10:54:24.496Z,45.36
2023-02-28T10:57:27.115Z,45.06
2023-02-28T11:00:14.359Z,45.56
2023-02-28T11:02:43.919Z,45.99
2023-02-28T11:05:31.440Z,45.63
2023-02-28T11:08:13.667Z,44.89
2023-02-28T11:10:40.949Z,45.30
2023-02-28T11:13:07.910Z,45.20
2023-02-28T11:15:36.014Z,45.18
2023-02-28T11:18:48.145Z,45.41
2023-02-28T11:21:41.145Z,45.81
2023-02-28T11:24:35.105Z,46.39
2023-02-28T11:27:02.821Z,46.96
2023-02-28T11:29:33.500Z,46.15
2023-02-28T11:32:31.463Z,46.04
2023-02-28T11:35:23.396Z,45.31
2023-02-28T11:37:50.360Z,44.94
2023-02-28T11:40:31.455Z,44.87
2023-02-28T11:43:07.939Z,43.93
2023-02-28T11:45:51.647Z,44.08
2023-02-28T11:49:08.083Z,44.05
2023-02-28T11:51:48.123Z,43.89
2023-02-28T11:54:49.118Z,43.71
2023-02-28T11:57:45.672Z,43.56
2023-02-28T12:00:24.149Z,43.41
2023-02-28T12:03:31.116Z,43.85
2023-02-28T12:06:21.716Z,43.36
2023-02-28T12:08:48.970Z,43.47
2023-02-28T12:12:05.678Z,43.31
2023-02-28T12:15:14.143Z,43.53
2023-02-28T12:18:14.055Z,43.13
2023-02-28T12:20:47.602Z,43.58
2023-02-28T12:23:42.323Z,43.37
2023-02-28T12:26:41.207Z,43.16
2023-02-28T12:29:24.809Z,43.41
2023-02-28T12:32:01.661Z,43.35
2023-02-28T12:34:39.624Z,43.61
2023-02-28T12:37:17.064Z,43.71
2023-02-28T12:39:51.152Z,43.51
2023-02-28T12:42:31.364Z,43.46
2023-02-28T12:45:04.222Z,43.04
2023-02-28T12:47:31.183Z,42.85
2023-02-28T12:50:08.070Z,42.85
2023-02-28T12:52:46.586Z,43.14
2023-02-28T12:55:42.318Z,43.34
2023-02-28T12:58:34.953Z,43.18
2023-02-28T13:01:26.706Z,43.20
2023-02-28T13:04:27.667Z,43.37
2023-02-28T13:07:43.808Z,43.48
2023-02-28T13:10:11.797Z,43.51
2023-02-28T13:12:50.607Z,43.28
2023-02-28T13:15:29.508Z,43.28
2023-02-28T13:18:00.296Z,43.48
2023-02-28T13:20:49.296Z,43.84
2023-02-28T13:23:58.105Z,43.58
2023-02-28T13:26:37.176Z,43.56
2023-02-28T13:29:16.843Z,44.05
2023-02-28T13:32:09.225Z,43.87
2023-02-28T13:34:38.379Z,43.67
2023-02-28T13:37:26.324Z,43.76
2023-02-28T13:40:11.036Z,43.55
2023-02-28T13:42:50.599Z,43.66
2023-02-28T13:45:30.840Z,44.02
2023-02-28T13:48:03.241Z,43.32
2023-02-28T13:50:38.711Z,43.11
2023-02-28T13:53:14.772Z,42.89
2023-02-28T13:56:11.944Z,43.33
2023-02-28T13:59:23.798Z,43.65
2023-02-28T14:02:07.896Z,43.42
2023-02-28T14:04:59.432Z,43.49
2023-02-28T14:07:36.255Z,43.52
2023-02-28T14:10:09.406Z,43.31
2023-02-28T14:12:59.055Z,43.11
2023-02-28T14:15:42.067Z,43.18
2023-02-28T14:18:30.465Z,42.86
2023-02-28T14:21:29.965Z,43.33
2023-02-28T14:24:02.375Z,43.29
2023-02-28T14:26:58.373Z,43.26
2023-02-28T14:29:35.479Z,43.42
2023-02-28T14:32:42.910Z,43.62
2023-02-28T14:35:52.304Z,43.13
2023-02-28T14:38:25.570Z,43.18
2023-02-28T14:40:55.848Z,43.17
2023-02-28T14:43:29.348Z,43.50
2023-02-28T14:46:04.252Z,43.93
2023-02-28T14:48:31.769Z,43.73
2023-02-28T14:51:01.345Z,43.60
2023-02-28T14:53:37.434Z,43.97
2023-02-28T14:56:04.847Z,44.27
2023-02-28T14:58:35.381Z,44.66
2023-02-28T15:01:04.840Z,44.08
2023-02-28T15:03:40.531Z,43.91
2023-02-28T15:06:16.623Z,43.91
2023-02-28T15:08:43.817Z,44.15
2023-02-28T15:11:20.289Z,44.19
2023-02-28T15:13:58.106Z,44.04
2023-02-28T15:16:42.421Z,44.59
2023-02-28T15:19:26.314Z,44.48
2023-02-28T15:22:01.585Z,44.24
2023-02-28T15:24:50.983Z,44.29
2023-02-28T15:27:29.011Z,44.33
2023-02-28T15:30:00.093Z,44.62
2023-02-28T15:32:32.907Z,44.88
2023-02-28T15:35:19.213Z,45.08
2023-02-28T15:37:55.356Z,44.73
2023-02-28T15:40:31.590Z,44.94
2023-02-28T15:43:13.114Z,45.01
2023-02-28T15:45:52.249Z,45.12
2023-02-28T15:48:46.193Z,45.16
2023-02-28T15:51:13.117Z,45.26
2023-02-28T15:53:55.702Z,45.37
2023-02-28T15:56:37.744Z,45.31
2023-02-28T15:59:08.077Z,45.32
2023-02-28T16:01:39.819Z,45.58
2023-02-28T16:04:19.199Z,45.16
2023-02-28T16:06:59.231Z,45.58
2023-02-28T16:09:28.119Z,45.47
2023-02-28T16:11:58.034Z,45.40
2023-02-28T16:14:31.654Z,45.70
2023-02-28T16:17:06.589Z,45.74
2023-02-28T16:19:34.704Z,45.77
2023-02-28T16:22:02.333Z,46.07
2023-02-28T16:24:29.448Z,46.15
2023-02-28T16:26:58.082Z,46.28
2023-02-28T16:29:31.023Z,46.14
2023-02-28T16:31:58.246Z,46.36
2023-02-28T16:34:25.622Z,46.00
2023-02-28T16:36:53.665Z,46.44
2023-02-28T16:39:23.719Z,46.56
2023-02-28T16:41:52.169Z,46.25
2023-02-28T16:44:29.760Z,46.51
2023-02-28T16:46:57.193Z,46.62
2023-02-28T16:49:24.240Z,46.76
2023-02-28T16:51:51.234Z,46.99
2023-02-28T16:54:18.520Z,46.91
2023-02-28T16:56:48.242Z,47.10
2023-02-28T16:59:20.908Z,47.33
2023-02-28T17:01:47.879Z,47.26
2023-02-28T17:04:16.669Z,47.73
2023-02-28T17:06:43.693Z,47.79
2023-02-28T17:09:41.293Z,47.84
2023-02-28T17:12:10.086Z,48.08
2023-02-28T17:14:37.061Z,48.42
2023-02-28T17:17:06.806Z,48.39
2023-02-28T17:19:35.182Z,47.93
2023-02-28T17:22:02.099Z,48.25
2023-02-28T17:24:31.341Z,48.40
2023-02-28T17:26:58.764Z,48.76
2023-02-28T17:29:25.977Z,48.74
2023-02-28T17:31:53.054Z,48.62
2023-02-28T17:34:20.701Z,48.86
2023-02-28T17:36:51.293Z,49.02
2023-02-28T17:39:26.244Z,49.23
2023-02-28T17:41:56.800Z,49.05
2023-02-28T17:44:25.879Z,48.98
2023-02-28T17:46:55.046Z,49.19
2023-02-28T17:49:22.661Z,49.26
2023-02-28T17:51:50.031Z,49.17
2023-02-28T17:54:18.340Z,49.48
2023-02-28T17:56:46.232Z,49.37
2023-02-28T17:59:13.814Z,49.29
2023-02-28T18:01:40.914Z,49.63
2023-02-28T18:04:08.087Z,49.67
2023-02-28T18:06:48.558Z,49.85
2023-02-28T18:09:24.180Z,49.84
2023-02-28T18:11:53.440Z,50.29
2023-02-28T18:14:24.361Z,50.24
2023-02-28T18:16:53.876Z,50.36
2023-02-28T18:19:21.105Z,50.38
2023-02-28T18:21:51.863Z,50.54
2023-02-28T18:24:21.545Z,50.60
2023-02-28T18:26:48.540Z,50.74
2023-02-28T18:29:25.709Z,50.82
2023-02-28T18:31:54.759Z,51.06
2023-02-28T18:34:23.636Z,50.90
2023-02-28T18:36:53.056Z,51.03
2023-02-28T18:39:20.077Z,51.14
2023-02-28T18:41:47.123Z,51.17
2023-02-28T18:44:20.303Z,51.15
2023-02-28T18:46:49.877Z,51.50
2023-02-28T18:49:17.999Z,51.35
2023-02-28T18:51:46.481Z,51.15
2023-02-28T18:54:15.358Z,51.36
2023-02-28T18:56:42.843Z,51.77
2023-02-28T18:59:10.986Z,51.56
2023-02-28T19:01:38.475Z,51.45
2023-02-28T19:04:06.626Z,51.83
2023-02-28T19:06:34.840Z,51.90
2023-02-28T19:09:03.872Z,52.05
2023-02-28T19:11:32.515Z,52.19
2023-02-28T19:13:59.652Z,51.99
2023-02-28T19:16:27.797Z,52.04
2023-02-28T19:18:55.929Z,52.39
2023-02-28T19:21:24.737Z,52.09
2023-02-28T19:23:51.770Z,52.06
2023-02-28T19:26:23.001Z,52.49
2023-02-28T19:28:50.436Z,52.44
2023-02-28T19:31:24.640Z,52.37
2023-02-28T19:33:52.985Z,52.70
2023-02-28T19:36:20.992Z,53.00
2023-02-28T19:38:48.496Z,52.78
2023-02-28T19:41:17.301Z,53.97
2023-02-28T19:43:44.854Z,53.56
2023-02-28T19:46:13.310Z,53.37
2023-02-28T19:48:42.468Z,53.96
2023-02-28T19:51:12.567Z,53.97
2023-02-28T19:53:41.881Z,53.67
2023-02-28T19:56:10.010Z,53.35
2023-02-28T19:58:37.972Z,53.49
2023-02-28T20:01:15.541Z,53.60
2023-02-28T20:03:42.761Z,54.03
2023-02-28T20:06:15.406Z,54.11
2023-02-28T20:08:43.122Z,54.07
2023-02-28T20:11:13.271Z,53.57
2023-02-28T20:13:40.564Z,54.20
2023-02-28T20:16:10.576Z,55.05
2023-02-28T20:18:44.155Z,54.64
2023-02-28T20:21:13.414Z,54.82
2023-02-28T20:23:43.097Z,54.66
2023-02-28T20:26:11.684Z,54.27
2023-02-28T20:28:39.942Z,54.67
2023-02-28T20:31:19.303Z,55.15
2023-02-28T20:33:47.869Z,54.83
2023-02-28T20:36:16.075Z,55.03
2023-02-28T20:38:43.876Z,55.21
2023-02-28T20:41:11.609Z,55.04
2023-02-28T20:43:40.416Z,55.05
2023-02-28T20:46:07.450Z,55.08
2023-02-28T20:48:38.326Z,55.51
2023-02-28T20:51:06.063Z,55.45
2023-02-28T20:53:35.395Z,55.85
2023-02-28T20:56:18.596Z,55.77
2023-02-28T20:58:48.256Z,55.59
2023-02-28T21:01:25.865Z,55.40
2023-02-28T21:03:56.011Z,55.43
2023-02-28T21:06:28.437Z,55.52
2023-02-28T21:08:56.753Z,55.58
2023-02-28T21:11:30.670Z,55.49
2023-02-28T21:14:04.464Z,55.33
2023-02-28T21:16:32.215Z,55.35
2023-02-28T21:19:05.650Z,55.43
2023-02-28T21:21:43.859Z,55.31
2023-02-28T21:24:18.043Z,55.52
2023-02-28T21:26:45.893Z,55.67
2023-02-28T21:29:14.142Z,56.07
2023-02-28T21:31:41.260Z,56.13
2023-02-28T21:34:10.812Z,56.12
2023-02-28T21:36:41.519Z,56.51
2023-02-28T21:39:20.372Z,56.22
2023-02-28T21:41:47.725Z,56.14
2023-02-28T21:44:23.806Z,55.94
2023-02-28T21:46:54.968Z,56.49
2023-02-28T21:49:22.413Z,56.12
2023-02-28T21:51:49.435Z,56.39
2023-02-28T21:54:16.526Z,56.65
2023-02-28T21:56:43.459Z,56.30
2023-02-28T21:59:10.883Z,56.33
2023-02-28T22:01:41.036Z,56.24
2023-02-28T22:04:12.260Z,56.51
2023-02-28T22:06:41.302Z,56.56
2023-02-28T22:09:10.216Z,55.87
2023-02-28T22:11:38.616Z,56.37
2023-02-28T22:14:06.963Z,55.84
2023-02-28T22:16:49.666Z,56.30
2023-02-28T22:19:18.306Z,56.18
2023-02-28T22:21:46.849Z,56.53
2023-02-28T22:24:14.625Z,56.12
2023-02-28T22:26:41.906Z,55.91
2023-02-28T22:29:10.506Z,56.12
2023-02-28T22:31:37.456Z,56.02
2023-02-28T22:34:08.583Z,55.94
2023-02-28T22:36:36.329Z,56.04
2023-02-28T22:39:04.742Z,56.42
2023-02-28T22:41:32.265Z,56.38
2023-02-28T22:44:03.991Z,56.66
2023-02-28T22:46:33.942Z,57.35
2023-02-28T22:49:05.697Z,57.53
2023-02-28T22:51:32.960Z,58.08
2023-02-28T22:53:59.998Z,57.96
2023-02-28T22:56:29.870Z,58.22
2023-02-28T22:58:59.288Z,57.71
2023-02-28T23:01:29.819Z,57.65
2023-02-28T23:03:57.776Z,57.67
2023-02-28T23:06:27.190Z,57.60
2023-02-28T23:08:58.757Z,57.29
2023-02-28T23:11:30.628Z,57.13
2023-02-28T23:13:58.622Z,57.21
2023-02-28T23:16:41.379Z,57.16
2023-02-28T23:19:23.114Z,57.49
2023-02-28T23:21:50.893Z,57.31
2023-02-28T23:24:21.177Z,57.29
2023-02-28T23:26:51.981Z,56.84
2023-02-28T23:29:21.502Z,57.22
2023-02-28T23:31:50.267Z,57.35
2023-02-28T23:34:24.794Z,57.23
2023-02-28T23:36:53.309Z,57.08
2023-02-28T23:39:21.751Z,57.01
2023-02-28T23:41:49.026Z,57.13
2023-02-28T23:44:17.200Z,56.94
2023-02-28T23:46:47.014Z,57.04
2023-02-28T23:49:16.128Z,56.99
2023-02-28T23:51:43.169Z,57.24
2023-02-28T23:54:10.118Z,56.98
2023-02-28T23:56:37.205Z,57.49
2023-02-28T23:59:05.166Z,57.35
